sensor_id;sensor_type;location;lat;lon;timestamp;temperature;humidity
18974;DHT22;9621;48.690;9.466;2023-05-10T00:02:02;12.40;99.90
18974;DHT22;9621;48.690;9.466;2023-05-10T00:04:29;12.40;99.90
18974;DHT22;9621;48.690;9.466;2023-05-10T00:06:56;12.30;99.90
18974;DHT22;9621;48.690;9.466;2023-05-10T00:09:23;12.30;99.90
18974;DHT22;9621;48.690;9.466;2023-05-10T00:11:50;12.30;99.90
18974;DHT22;9621;48.690;9.466;2023-05-10T00:14:17;12.30;99.90
18974;DHT22;9621;48.690;9.466;2023-05-10T00:16:45;12.30;99.90
18974;DHT22;9621;48.690;9.466;2023-05-10T00:19:12;12.30;99.90
18974;DHT22;9621;48.690;9.466;2023-05-10T00:21:39;12.20;99.90
18974;DHT22;9621;48.690;9.466;2023-05-10T00:24:06;12.20;99.90
18974;DHT22;9621;48.690;9.466;2023-05-10T00:26:33;12.20;99.90
18974;DHT22;9621;48.690;9.466;2023-05-10T00:29:00;12.10;99.90
18974;DHT22;9621;48.690;9.466;2023-05-10T00:31:27;12.10;99.90
18974;DHT22;9621;48.690;9.466;2023-05-10T00:33:55;12.10;99.90
18974;DHT22;9621;48.690;9.466;2023-05-10T00:36:22;12.10;99.90
18974;DHT22;9621;48.690;9.466;2023-05-10T00:38:49;12.10;99.90
18974;DHT22;9621;48.690;9.466;2023-05-10T00:41:16;12.10;99.90
18974;DHT22;9621;48.690;9.466;2023-05-10T00:43:43;12.10;99.90
18974;DHT22;9621;48.690;9.466;2023-05-10T00:46:10;12.10;99.90
18974;DHT22;9621;48.690;9.466;2023-05-10T00:48:38;12.10;99.90
18974;DHT22;9621;48.690;9.466;2023-05-10T00:51:06;12.10;99.90
18974;DHT22;9621;48.690;9.466;2023-05-10T00:53:34;12.10;99.90
18974;DHT22;9621;48.690;9.466;2023-05-10T00:56:01;12.10;99.90
18974;DHT22;9621;48.690;9.466;2023-05-10T00:58:29;12.10;99.90
18974;DHT22;9621;48.690;9.466;2023-05-10T01:00:56;12.10;99.90
18974;DHT22;9621;48.690;9.466;2023-05-10T01:03:24;12.00;99.90
18974;DHT22;9621;48.690;9.466;2023-05-10T01:05:51;12.00;99.90
18974;DHT22;9621;48.690;9.466;2023-05-10T01:08:20;12.00;99.90
18974;DHT22;9621;48.690;9.466;2023-05-10T01:10:47;12.00;99.90
18974;DHT22;9621;48.690;9.466;2023-05-10T01:13:23;12.00;99.90
18974;DHT22;9621;48.690;9.466;2023-05-10T01:15:52;12.00;99.90
18974;DHT22;9621;48.690;9.466;2023-05-10T01:18:20;12.00;99.90
18974;DHT22;9621;48.690;9.466;2023-05-10T01:20:56;11.90;99.90
18974;DHT22;9621;48.690;9.466;2023-05-10T01:23:45;11.90;99.90
18974;DHT22;9621;48.690;9.466;2023-05-10T01:26:49;11.80;99.90
18974;DHT22;9621;48.690;9.466;2023-05-10T01:29:44;11.80;99.90
18974;DHT22;9621;48.690;9.466;2023-05-10T01:32:21;11.80;99.90
18974;DHT22;9621;48.690;9.466;2023-05-10T01:34:56;11.80;99.90
18974;DHT22;9621;48.690;9.466;2023-05-10T01:37:33;11.80;99.90
18974;DHT22;9621;48.690;9.466;2023-05-10T01:40:10;11.80;99.90
18974;DHT22;9621;48.690;9.466;2023-05-10T01:42:46;11.70;99.90
18974;DHT22;9621;48.690;9.466;2023-05-10T01:45:18;11.70;99.90
18974;DHT22;9621;48.690;9.466;2023-05-10T01:47:51;11.80;99.90
18974;DHT22;9621;48.690;9.466;2023-05-10T01:50:24;11.70;99.90
18974;DHT22;9621;48.690;9.466;2023-05-10T01:52:56;11.70;99.90
18974;DHT22;9621;48.690;9.466;2023-05-10T01:55:25;11.70;99.90
18974;DHT22;9621;48.690;9.466;2023-05-10T01:58:00;11.70;99.90
18974;DHT22;9621;48.690;9.466;2023-05-10T02:00:29;11.70;99.90
18974;DHT22;9621;48.690;9.466;2023-05-10T02:03:00;11.60;99.90
18974;DHT22;9621;48.690;9.466;2023-05-10T02:05:29;11.70;99.90
18974;DHT22;9621;48.690;9.466;2023-05-10T02:07:58;11.70;99.90
18974;DHT22;9621;48.690;9.466;2023-05-10T02:10:26;11.70;99.90
18974;DHT22;9621;48.690;9.466;2023-05-10T02:12:55;11.60;99.90
18974;DHT22;9621;48.690;9.466;2023-05-10T02:15:26;11.60;99.90
18974;DHT22;9621;48.690;9.466;2023-05-10T02:17:55;11.60;99.90
18974;DHT22;9621;48.690;9.466;2023-05-10T02:20:24;11.60;99.90
18974;DHT22;9621;48.690;9.466;2023-05-10T02:22:54;11.70;99.90
18974;DHT22;9621;48.690;9.466;2023-05-10T02:25:23;11.50;99.90
18974;DHT22;9621;48.690;9.466;2023-05-10T02:27:54;11.40;99.90
18974;DHT22;9621;48.690;9.466;2023-05-10T02:30:22;11.50;99.90
18974;DHT22;9621;48.690;9.466;2023-05-10T02:32:50;11.50;99.90
18974;DHT22;9621;48.690;9.466;2023-05-10T02:35:19;11.50;99.90
18974;DHT22;9621;48.690;9.466;2023-05-10T02:37:47;11.40;99.90
18974;DHT22;9621;48.690;9.466;2023-05-10T02:40:15;11.40;99.90
18974;DHT22;9621;48.690;9.466;2023-05-10T02:42:44;11.40;99.90
18974;DHT22;9621;48.690;9.466;2023-05-10T02:45:18;11.30;99.90
18974;DHT22;9621;48.690;9.466;2023-05-10T02:47:46;11.30;99.90
18974;DHT22;9621;48.690;9.466;2023-05-10T02:50:13;11.30;99.90
18974;DHT22;9621;48.690;9.466;2023-05-10T02:52:44;11.30;99.90
18974;DHT22;9621;48.690;9.466;2023-05-10T02:55:15;11.20;99.90
18974;DHT22;9621;48.690;9.466;2023-05-10T02:57:48;11.30;99.90
18974;DHT22;9621;48.690;9.466;2023-05-10T03:00:15;11.10;99.90
18974;DHT22;9621;48.690;9.466;2023-05-10T03:02:42;11.10;99.90
18974;DHT22;9621;48.690;9.466;2023-05-10T03:05:09;11.10;99.90
18974;DHT22;9621;48.690;9.466;2023-05-10T03:07:36;11.20;99.90
18974;DHT22;9621;48.690;9.466;2023-05-10T03:10:04;11.10;99.90
18974;DHT22;9621;48.690;9.466;2023-05-10T03:12:46;11.00;99.90
18974;DHT22;9621;48.690;9.466;2023-05-10T03:15:19;11.00;99.90
18974;DHT22;9621;48.690;9.466;2023-05-10T03:17:54;11.10;99.90
18974;DHT22;9621;48.690;9.466;2023-05-10T03:20:25;11.00;99.90
18974;DHT22;9621;48.690;9.466;2023-05-10T03:22:55;11.00;99.90
18974;DHT22;9621;48.690;9.466;2023-05-10T03:25:25;11.00;99.90
18974;DHT22;9621;48.690;9.466;2023-05-10T03:27:54;11.00;99.90
18974;DHT22;9621;48.690;9.466;2023-05-10T03:30:24;11.10;99.90
18974;DHT22;9621;48.690;9.466;2023-05-10T03:32:51;11.00;99.90
18974;DHT22;9621;48.690;9.466;2023-05-10T03:35:18;11.00;99.90
18974;DHT22;9621;48.690;9.466;2023-05-10T03:37:45;11.10;99.90
18974;DHT22;9621;48.690;9.466;2023-05-10T03:40:13;11.00;99.90
18974;DHT22;9621;48.690;9.466;2023-05-10T03:42:40;11.00;99.90
18974;DHT22;9621;48.690;9.466;2023-05-10T03:45:10;11.00;99.90
18974;DHT22;9621;48.690;9.466;2023-05-10T03:47:37;10.90;99.90
18974;DHT22;9621;48.690;9.466;2023-05-10T03:50:05;10.90;99.90
18974;DHT22;9621;48.690;9.466;2023-05-10T03:52:33;10.90;99.90
18974;DHT22;9621;48.690;9.466;2023-05-10T03:55:00;10.90;99.90
18974;DHT22;9621;48.690;9.466;2023-05-10T03:57:28;10.90;99.90
18974;DHT22;9621;48.690;9.466;2023-05-10T03:59:55;10.90;99.90
18974;DHT22;9621;48.690;9.466;2023-05-10T04:02:23;10.80;99.90
18974;DHT22;9621;48.690;9.466;2023-05-10T04:04:50;10.90;99.90
18974;DHT22;9621;48.690;9.466;2023-05-10T04:07:17;10.90;99.90
18974;DHT22;9621;48.690;9.466;2023-05-10T04:09:44;10.90;99.90
18974;DHT22;9621;48.690;9.466;2023-05-10T04:12:11;11.00;99.90
18974;DHT22;9621;48.690;9.466;2023-05-10T04:14:38;11.00;99.90
18974;DHT22;9621;48.690;9.466;2023-05-10T04:17:05;11.00;99.90
18974;DHT22;9621;48.690;9.466;2023-05-10T04:19:33;11.00;99.90
18974;DHT22;9621;48.690;9.466;2023-05-10T04:22:02;11.10;99.90
18974;DHT22;9621;48.690;9.466;2023-05-10T04:24:29;11.10;99.90
18974;DHT22;9621;48.690;9.466;2023-05-10T04:26:56;11.20;99.90
18974;DHT22;9621;48.690;9.466;2023-05-10T04:29:23;11.20;99.90
18974;DHT22;9621;48.690;9.466;2023-05-10T04:31:50;11.20;99.90
18974;DHT22;9621;48.690;9.466;2023-05-10T04:34:17;11.20;99.90
18974;DHT22;9621;48.690;9.466;2023-05-10T04:36:46;11.30;99.90
18974;DHT22;9621;48.690;9.466;2023-05-10T04:39:13;11.30;99.90
18974;DHT22;9621;48.690;9.466;2023-05-10T04:41:40;11.40;99.90
18974;DHT22;9621;48.690;9.466;2023-05-10T04:44:07;11.30;99.90
18974;DHT22;9621;48.690;9.466;2023-05-10T04:46:34;11.50;99.90
18974;DHT22;9621;48.690;9.466;2023-05-10T04:49:01;11.50;99.90
18974;DHT22;9621;48.690;9.466;2023-05-10T04:51:28;11.50;99.90
18974;DHT22;9621;48.690;9.466;2023-05-10T04:53:56;11.50;99.90
18974;DHT22;9621;48.690;9.466;2023-05-10T04:56:23;11.50;99.90
18974;DHT22;9621;48.690;9.466;2023-05-10T04:58:50;11.50;99.90
18974;DHT22;9621;48.690;9.466;2023-05-10T05:01:17;11.60;99.90
18974;DHT22;9621;48.690;9.466;2023-05-10T05:03:44;11.60;99.90
18974;DHT22;9621;48.690;9.466;2023-05-10T05:06:11;11.60;99.90
18974;DHT22;9621;48.690;9.466;2023-05-10T05:08:38;11.60;99.90
18974;DHT22;9621;48.690;9.466;2023-05-10T05:11:06;11.60;99.90
18974;DHT22;9621;48.690;9.466;2023-05-10T05:13:33;11.70;99.90
18974;DHT22;9621;48.690;9.466;2023-05-10T05:16:00;11.70;99.90
18974;DHT22;9621;48.690;9.466;2023-05-10T05:18:28;11.80;99.90
18974;DHT22;9621;48.690;9.466;2023-05-10T05:20:54;11.80;99.90
18974;DHT22;9621;48.690;9.466;2023-05-10T05:23:21;11.80;99.90
18974;DHT22;9621;48.690;9.466;2023-05-10T05:25:51;11.90;99.90
18974;DHT22;9621;48.690;9.466;2023-05-10T05:28:19;11.90;99.90
18974;DHT22;9621;48.690;9.466;2023-05-10T05:30:46;11.90;99.90
18974;DHT22;9621;48.690;9.466;2023-05-10T05:33:13;11.90;99.90
18974;DHT22;9621;48.690;9.466;2023-05-10T05:35:41;12.00;99.90
18974;DHT22;9621;48.690;9.466;2023-05-10T05:38:13;12.00;99.90
18974;DHT22;9621;48.690;9.466;2023-05-10T05:40:39;12.10;99.90
18974;DHT22;9621;48.690;9.466;2023-05-10T05:43:06;12.20;99.90
18974;DHT22;9621;48.690;9.466;2023-05-10T05:45:35;12.20;99.90
18974;DHT22;9621;48.690;9.466;2023-05-10T05:48:02;12.30;99.90
18974;DHT22;9621;48.690;9.466;2023-05-10T05:50:29;12.40;99.90
18974;DHT22;9621;48.690;9.466;2023-05-10T05:52:55;12.40;99.90
18974;DHT22;9621;48.690;9.466;2023-05-10T05:55:23;12.40;99.90
18974;DHT22;9621;48.690;9.466;2023-05-10T05:57:51;12.50;99.90
18974;DHT22;9621;48.690;9.466;2023-05-10T06:00:18;12.50;99.90
18974;DHT22;9621;48.690;9.466;2023-05-10T06:02:46;12.60;99.90
18974;DHT22;9621;48.690;9.466;2023-05-10T06:05:13;12.60;99.90
18974;DHT22;9621;48.690;9.466;2023-05-10T06:07:40;12.60;99.90
18974;DHT22;9621;48.690;9.466;2023-05-10T06:10:08;12.70;99.90
18974;DHT22;9621;48.690;9.466;2023-05-10T06:12:35;12.70;99.90
18974;DHT22;9621;48.690;9.466;2023-05-10T06:15:02;12.70;99.90
18974;DHT22;9621;48.690;9.466;2023-05-10T06:17:30;12.70;99.90
18974;DHT22;9621;48.690;9.466;2023-05-10T06:19:58;12.70;99.90
18974;DHT22;9621;48.690;9.466;2023-05-10T06:22:25;12.70;99.90
18974;DHT22;9621;48.690;9.466;2023-05-10T06:24:52;12.60;99.90
18974;DHT22;9621;48.690;9.466;2023-05-10T06:27:19;12.70;99.90
18974;DHT22;9621;48.690;9.466;2023-05-10T06:29:46;12.60;99.90
18974;DHT22;9621;48.690;9.466;2023-05-10T06:32:12;12.60;99.90
18974;DHT22;9621;48.690;9.466;2023-05-10T06:34:39;12.60;99.90
18974;DHT22;9621;48.690;9.466;2023-05-10T06:37:07;12.60;99.90
18974;DHT22;9621;48.690;9.466;2023-05-10T06:39:34;12.60;99.90
18974;DHT22;9621;48.690;9.466;2023-05-10T06:42:02;12.70;99.90
18974;DHT22;9621;48.690;9.466;2023-05-10T06:44:30;12.70;99.90
18974;DHT22;9621;48.690;9.466;2023-05-10T06:46:57;12.80;99.90
18974;DHT22;9621;48.690;9.466;2023-05-10T06:49:24;12.80;99.90
18974;DHT22;9621;48.690;9.466;2023-05-10T06:51:51;12.80;99.90
18974;DHT22;9621;48.690;9.466;2023-05-10T06:54:19;12.80;99.90
18974;DHT22;9621;48.690;9.466;2023-05-10T06:56:46;12.80;99.90
18974;DHT22;9621;48.690;9.466;2023-05-10T06:59:13;12.90;99.90
18974;DHT22;9621;48.690;9.466;2023-05-10T07:01:40;13.00;99.90
18974;DHT22;9621;48.690;9.466;2023-05-10T07:04:07;13.20;99.90
18974;DHT22;9621;48.690;9.466;2023-05-10T07:06:34;13.30;99.90
18974;DHT22;9621;48.690;9.466;2023-05-10T07:09:01;13.30;99.90
18974;DHT22;9621;48.690;9.466;2023-05-10T07:11:30;13.50;99.90
18974;DHT22;9621;48.690;9.466;2023-05-10T07:13:57;13.60;99.90
18974;DHT22;9621;48.690;9.466;2023-05-10T07:16:24;13.60;99.90
18974;DHT22;9621;48.690;9.466;2023-05-10T07:18:50;13.70;99.90
18974;DHT22;9621;48.690;9.466;2023-05-10T07:21:19;13.70;99.90
18974;DHT22;9621;48.690;9.466;2023-05-10T07:23:45;13.80;99.90
18974;DHT22;9621;48.690;9.466;2023-05-10T07:26:12;13.80;99.90
18974;DHT22;9621;48.690;9.466;2023-05-10T07:28:41;13.80;99.90
18974;DHT22;9621;48.690;9.466;2023-05-10T07:31:08;13.80;99.90
18974;DHT22;9621;48.690;9.466;2023-05-10T07:33:36;13.80;99.90
18974;DHT22;9621;48.690;9.466;2023-05-10T07:36:03;13.80;99.90
18974;DHT22;9621;48.690;9.466;2023-05-10T07:38:30;13.70;99.90
18974;DHT22;9621;48.690;9.466;2023-05-10T07:40:57;13.70;99.90
18974;DHT22;9621;48.690;9.466;2023-05-10T07:43:23;13.70;99.90
18974;DHT22;9621;48.690;9.466;2023-05-10T07:45:52;13.60;99.90
18974;DHT22;9621;48.690;9.466;2023-05-10T07:48:19;13.60;99.90
18974;DHT22;9621;48.690;9.466;2023-05-10T07:50:46;13.50;99.90
18974;DHT22;9621;48.690;9.466;2023-05-10T07:53:13;13.50;99.90
18974;DHT22;9621;48.690;9.466;2023-05-10T07:55:40;13.50;99.90
18974;DHT22;9621;48.690;9.466;2023-05-10T07:58:07;13.60;99.90
18974;DHT22;9621;48.690;9.466;2023-05-10T08:00:34;13.70;99.90
18974;DHT22;9621;48.690;9.466;2023-05-10T08:03:02;13.80;99.90
18974;DHT22;9621;48.690;9.466;2023-05-10T08:05:29;13.90;99.90
18974;DHT22;9621;48.690;9.466;2023-05-10T08:07:56;14.00;99.90
18974;DHT22;9621;48.690;9.466;2023-05-10T08:10:25;14.20;99.90
18974;DHT22;9621;48.690;9.466;2023-05-10T08:12:52;14.40;99.90
18974;DHT22;9621;48.690;9.466;2023-05-10T08:15:18;14.60;99.90
18974;DHT22;9621;48.690;9.466;2023-05-10T08:17:45;14.70;99.90
18974;DHT22;9621;48.690;9.466;2023-05-10T08:20:14;14.80;99.90
18974;DHT22;9621;48.690;9.466;2023-05-10T08:22:42;14.90;99.90
18974;DHT22;9621;48.690;9.466;2023-05-10T08:25:09;15.00;99.90
18974;DHT22;9621;48.690;9.466;2023-05-10T08:27:36;15.10;99.90
18974;DHT22;9621;48.690;9.466;2023-05-10T08:30:03;15.30;99.90
18974;DHT22;9621;48.690;9.466;2023-05-10T08:32:30;15.30;99.90
18974;DHT22;9621;48.690;9.466;2023-05-10T08:34:57;15.40;99.90
18974;DHT22;9621;48.690;9.466;2023-05-10T08:37:25;15.30;99.90
18974;DHT22;9621;48.690;9.466;2023-05-10T08:39:52;15.40;99.90
18974;DHT22;9621;48.690;9.466;2023-05-10T08:42:19;15.40;99.90
18974;DHT22;9621;48.690;9.466;2023-05-10T08:44:49;15.40;99.90
18974;DHT22;9621;48.690;9.466;2023-05-10T08:47:18;15.50;99.90
18974;DHT22;9621;48.690;9.466;2023-05-10T08:49:47;15.50;99.90
18974;DHT22;9621;48.690;9.466;2023-05-10T08:52:16;15.50;99.90
18974;DHT22;9621;48.690;9.466;2023-05-10T08:54:47;15.60;99.90
18974;DHT22;9621;48.690;9.466;2023-05-10T08:57:13;15.50;99.90
18974;DHT22;9621;48.690;9.466;2023-05-10T08:59:41;15.60;99.90
18974;DHT22;9621;48.690;9.466;2023-05-10T09:02:08;15.70;99.90
18974;DHT22;9621;48.690;9.466;2023-05-10T09:04:36;15.80;99.90
18974;DHT22;9621;48.690;9.466;2023-05-10T09:07:03;15.90;99.90
18974;DHT22;9621;48.690;9.466;2023-05-10T09:09:31;16.00;99.90
18974;DHT22;9621;48.690;9.466;2023-05-10T09:11:59;16.10;99.90
18974;DHT22;9621;48.690;9.466;2023-05-10T09:14:26;16.20;99.90
18974;DHT22;9621;48.690;9.466;2023-05-10T09:16:54;16.30;99.90
18974;DHT22;9621;48.690;9.466;2023-05-10T09:19:21;16.40;99.90
18974;DHT22;9621;48.690;9.466;2023-05-10T09:21:49;16.40;99.90
18974;DHT22;9621;48.690;9.466;2023-05-10T09:24:16;16.50;99.90
18974;DHT22;9621;48.690;9.466;2023-05-10T09:26:46;16.50;99.90
18974;DHT22;9621;48.690;9.466;2023-05-10T09:29:16;16.50;99.90
18974;DHT22;9621;48.690;9.466;2023-05-10T09:31:44;16.60;99.90
18974;DHT22;9621;48.690;9.466;2023-05-10T09:34:15;16.60;99.90
18974;DHT22;9621;48.690;9.466;2023-05-10T09:36:53;16.60;99.90
18974;DHT22;9621;48.690;9.466;2023-05-10T09:39:30;16.70;99.90
18974;DHT22;9621;48.690;9.466;2023-05-10T09:41:58;16.80;99.90
18974;DHT22;9621;48.690;9.466;2023-05-10T09:44:27;17.00;99.90
18974;DHT22;9621;48.690;9.466;2023-05-10T09:46:54;17.20;99.90
18974;DHT22;9621;48.690;9.466;2023-05-10T09:49:21;17.30;99.90
18974;DHT22;9621;48.690;9.466;2023-05-10T09:52:00;17.40;99.90
18974;DHT22;9621;48.690;9.466;2023-05-10T09:54:28;17.40;99.90
18974;DHT22;9621;48.690;9.466;2023-05-10T09:56:55;17.30;99.90
18974;DHT22;9621;48.690;9.466;2023-05-10T09:59:25;17.30;99.90
18974;DHT22;9621;48.690;9.466;2023-05-10T10:01:56;17.10;99.90
18974;DHT22;9621;48.690;9.466;2023-05-10T10:04:23;17.00;99.90
18974;DHT22;9621;48.690;9.466;2023-05-10T10:07:01;16.90;99.90
18974;DHT22;9621;48.690;9.466;2023-05-10T10:09:28;16.70;99.90
18974;DHT22;9621;48.690;9.466;2023-05-10T10:11:55;16.70;99.90
18974;DHT22;9621;48.690;9.466;2023-05-10T10:14:23;16.50;99.90
18974;DHT22;9621;48.690;9.466;2023-05-10T10:16:50;16.40;99.90
18974;DHT22;9621;48.690;9.466;2023-05-10T10:19:19;16.20;99.90
18974;DHT22;9621;48.690;9.466;2023-05-10T10:21:46;16.00;99.90
18974;DHT22;9621;48.690;9.466;2023-05-10T10:24:13;15.70;99.90
18974;DHT22;9621;48.690;9.466;2023-05-10T10:26:41;15.50;99.90
18974;DHT22;9621;48.690;9.466;2023-05-10T10:29:18;15.30;99.90
18974;DHT22;9621;48.690;9.466;2023-05-10T10:31:51;15.10;99.90
18974;DHT22;9621;48.690;9.466;2023-05-10T10:34:26;15.00;99.90
18974;DHT22;9621;48.690;9.466;2023-05-10T10:36:55;15.00;99.90
18974;DHT22;9621;48.690;9.466;2023-05-10T10:39:23;15.00;99.90
18974;DHT22;9621;48.690;9.466;2023-05-10T10:41:52;15.20;99.90
18974;DHT22;9621;48.690;9.466;2023-05-10T10:44:23;15.30;99.90
18974;DHT22;9621;48.690;9.466;2023-05-10T10:47:02;15.50;99.90
18974;DHT22;9621;48.690;9.466;2023-05-10T10:49:36;15.70;99.90
18974;DHT22;9621;48.690;9.466;2023-05-10T10:52:13;16.00;99.90
18974;DHT22;9621;48.690;9.466;2023-05-10T10:54:41;16.20;99.90
18974;DHT22;9621;48.690;9.466;2023-05-10T10:57:11;16.40;99.90
18974;DHT22;9621;48.690;9.466;2023-05-10T10:59:41;16.60;99.90
18974;DHT22;9621;48.690;9.466;2023-05-10T11:02:09;16.70;99.90
18974;DHT22;9621;48.690;9.466;2023-05-10T11:04:43;16.80;99.90
18974;DHT22;9621;48.690;9.466;2023-05-10T11:07:18;16.90;99.90
18974;DHT22;9621;48.690;9.466;2023-05-10T11:09:47;17.00;99.90
18974;DHT22;9621;48.690;9.466;2023-05-10T11:12:14;17.10;99.90
18974;DHT22;9621;48.690;9.466;2023-05-10T11:14:41;17.20;99.90
18974;DHT22;9621;48.690;9.466;2023-05-10T11:17:24;17.30;99.90
18974;DHT22;9621;48.690;9.466;2023-05-10T11:20:08;17.40;99.90
18974;DHT22;9621;48.690;9.466;2023-05-10T11:22:49;17.40;99.90
18974;DHT22;9621;48.690;9.466;2023-05-10T11:25:17;17.30;99.90
18974;DHT22;9621;48.690;9.466;2023-05-10T11:27:44;17.20;99.90
18974;DHT22;9621;48.690;9.466;2023-05-10T11:30:12;17.00;99.90
18974;DHT22;9621;48.690;9.466;2023-05-10T11:32:40;16.70;99.90
18974;DHT22;9621;48.690;9.466;2023-05-10T11:35:09;16.30;99.90
18974;DHT22;9621;48.690;9.466;2023-05-10T11:37:38;15.90;99.90
18974;DHT22;9621;48.690;9.466;2023-05-10T11:40:07;15.40;99.90
18974;DHT22;9621;48.690;9.466;2023-05-10T11:42:37;15.10;99.90
18974;DHT22;9621;48.690;9.466;2023-05-10T11:45:04;14.70;99.90
18974;DHT22;9621;48.690;9.466;2023-05-10T11:47:33;14.40;99.90
18974;DHT22;9621;48.690;9.466;2023-05-10T11:50:01;14.20;99.90
18974;DHT22;9621;48.690;9.466;2023-05-10T11:52:29;14.00;99.90
18974;DHT22;9621;48.690;9.466;2023-05-10T11:55:02;13.60;99.90
18974;DHT22;9621;48.690;9.466;2023-05-10T11:57:29;13.30;99.90
18974;DHT22;9621;48.690;9.466;2023-05-10T11:59:57;13.00;99.90
18974;DHT22;9621;48.690;9.466;2023-05-10T12:02:24;12.70;99.90
18974;DHT22;9621;48.690;9.466;2023-05-10T12:04:51;12.40;99.90
18974;DHT22;9621;48.690;9.466;2023-05-10T12:07:18;12.20;99.90
18974;DHT22;9621;48.690;9.466;2023-05-10T12:10:02;11.90;99.90
18974;DHT22;9621;48.690;9.466;2023-05-10T12:12:36;11.80;99.90
18974;DHT22;9621;48.690;9.466;2023-05-10T12:15:04;11.60;99.90
18974;DHT22;9621;48.690;9.466;2023-05-10T12:17:32;11.50;99.90
18974;DHT22;9621;48.690;9.466;2023-05-10T12:20:04;11.30;99.90
18974;DHT22;9621;48.690;9.466;2023-05-10T12:22:39;11.20;99.90
18974;DHT22;9621;48.690;9.466;2023-05-10T12:25:08;11.10;99.90
18974;DHT22;9621;48.690;9.466;2023-05-10T12:27:35;11.00;99.90
18974;DHT22;9621;48.690;9.466;2023-05-10T12:30:03;11.00;99.90
18974;DHT22;9621;48.690;9.466;2023-05-10T12:32:40;10.90;99.90
18974;DHT22;9621;48.690;9.466;2023-05-10T12:35:08;10.90;99.90
18974;DHT22;9621;48.690;9.466;2023-05-10T12:37:35;10.80;99.90
18974;DHT22;9621;48.690;9.466;2023-05-10T12:40:08;10.80;99.90
18974;DHT22;9621;48.690;9.466;2023-05-10T12:42:36;10.80;99.90
18974;DHT22;9621;48.690;9.466;2023-05-10T12:45:04;10.80;99.90
18974;DHT22;9621;48.690;9.466;2023-05-10T12:47:32;10.80;99.90
18974;DHT22;9621;48.690;9.466;2023-05-10T12:50:00;10.80;99.90
18974;DHT22;9621;48.690;9.466;2023-05-10T12:52:27;10.90;99.90
18974;DHT22;9621;48.690;9.466;2023-05-10T12:54:54;11.10;99.90
18974;DHT22;9621;48.690;9.466;2023-05-10T12:57:23;11.30;99.90
18974;DHT22;9621;48.690;9.466;2023-05-10T12:59:50;11.40;99.90
18974;DHT22;9621;48.690;9.466;2023-05-10T13:02:17;11.70;99.90
18974;DHT22;9621;48.690;9.466;2023-05-10T13:04:45;11.90;99.90
18974;DHT22;9621;48.690;9.466;2023-05-10T13:07:12;12.00;99.90
18974;DHT22;9621;48.690;9.466;2023-05-10T13:09:40;12.20;99.90
18974;DHT22;9621;48.690;9.466;2023-05-10T13:12:06;12.30;99.90
18974;DHT22;9621;48.690;9.466;2023-05-10T13:14:35;12.50;99.90
18974;DHT22;9621;48.690;9.466;2023-05-10T13:17:02;12.60;99.90
18974;DHT22;9621;48.690;9.466;2023-05-10T13:19:29;12.70;99.90
18974;DHT22;9621;48.690;9.466;2023-05-10T13:21:56;12.90;99.90
18974;DHT22;9621;48.690;9.466;2023-05-10T13:24:23;13.00;99.90
18974;DHT22;9621;48.690;9.466;2023-05-10T13:26:50;13.10;99.90
18974;DHT22;9621;48.690;9.466;2023-05-10T13:29:17;13.30;99.90
18974;DHT22;9621;48.690;9.466;2023-05-10T13:31:46;13.40;99.90
18974;DHT22;9621;48.690;9.466;2023-05-10T13:34:13;13.50;99.90
18974;DHT22;9621;48.690;9.466;2023-05-10T13:36:39;13.70;99.90
18974;DHT22;9621;48.690;9.466;2023-05-10T13:39:06;13.80;99.90
18974;DHT22;9621;48.690;9.466;2023-05-10T13:41:34;14.00;99.90
18974;DHT22;9621;48.690;9.466;2023-05-10T13:44:00;14.20;99.90
18974;DHT22;9621;48.690;9.466;2023-05-10T13:46:28;14.40;99.90
18974;DHT22;9621;48.690;9.466;2023-05-10T13:48:56;14.60;99.90
18974;DHT22;9621;48.690;9.466;2023-05-10T13:51:23;14.80;99.90
18974;DHT22;9621;48.690;9.466;2023-05-10T13:53:50;15.00;99.90
18974;DHT22;9621;48.690;9.466;2023-05-10T13:56:17;15.20;99.90
18974;DHT22;9621;48.690;9.466;2023-05-10T13:58:44;15.40;99.90
18974;DHT22;9621;48.690;9.466;2023-05-10T14:01:11;15.60;99.90
18974;DHT22;9621;48.690;9.466;2023-05-10T14:03:38;15.80;99.90
18974;DHT22;9621;48.690;9.466;2023-05-10T14:06:07;15.90;99.90
18974;DHT22;9621;48.690;9.466;2023-05-10T14:08:34;16.00;99.90
18974;DHT22;9621;48.690;9.466;2023-05-10T14:11:01;16.10;99.90
18974;DHT22;9621;48.690;9.466;2023-05-10T14:13:28;16.20;99.90
18974;DHT22;9621;48.690;9.466;2023-05-10T14:15:55;16.20;99.90
18974;DHT22;9621;48.690;9.466;2023-05-10T14:18:22;16.20;99.90
18974;DHT22;9621;48.690;9.466;2023-05-10T14:20:49;16.20;99.90
18974;DHT22;9621;48.690;9.466;2023-05-10T14:23:17;16.30;99.90
18974;DHT22;9621;48.690;9.466;2023-05-10T14:25:49;16.40;99.90
18974;DHT22;9621;48.690;9.466;2023-05-10T14:28:16;16.50;99.90
18974;DHT22;9621;48.690;9.466;2023-05-10T14:30:43;16.50;99.90
18974;DHT22;9621;48.690;9.466;2023-05-10T14:33:10;16.60;99.90
18974;DHT22;9621;48.690;9.466;2023-05-10T14:35:37;16.60;99.90
18974;DHT22;9621;48.690;9.466;2023-05-10T14:38:05;16.60;99.90
18974;DHT22;9621;48.690;9.466;2023-05-10T14:40:33;16.70;99.90
18974;DHT22;9621;48.690;9.466;2023-05-10T14:43:00;16.70;99.90
18974;DHT22;9621;48.690;9.466;2023-05-10T14:45:27;16.70;99.90
18974;DHT22;9621;48.690;9.466;2023-05-10T14:47:53;16.80;99.90
18974;DHT22;9621;48.690;9.466;2023-05-10T14:50:20;16.90;99.90
18974;DHT22;9621;48.690;9.466;2023-05-10T14:52:48;16.90;99.90
18974;DHT22;9621;48.690;9.466;2023-05-10T14:55:15;17.00;99.90
18974;DHT22;9621;48.690;9.466;2023-05-10T14:57:44;17.00;99.90
18974;DHT22;9621;48.690;9.466;2023-05-10T15:00:13;17.00;99.90
18974;DHT22;9621;48.690;9.466;2023-05-10T15:02:41;17.00;99.90
18974;DHT22;9621;48.690;9.466;2023-05-10T15:05:08;16.90;99.90
18974;DHT22;9621;48.690;9.466;2023-05-10T15:07:35;16.80;99.90
18974;DHT22;9621;48.690;9.466;2023-05-10T15:10:03;16.80;99.90
18974;DHT22;9621;48.690;9.466;2023-05-10T15:12:30;16.70;99.90
18974;DHT22;9621;48.690;9.466;2023-05-10T15:14:58;16.50;99.90
18974;DHT22;9621;48.690;9.466;2023-05-10T15:17:25;16.50;99.90
18974;DHT22;9621;48.690;9.466;2023-05-10T15:19:52;16.30;99.90
18974;DHT22;9621;48.690;9.466;2023-05-10T15:22:19;16.30;99.90
18974;DHT22;9621;48.690;9.466;2023-05-10T15:24:47;16.30;99.90
18974;DHT22;9621;48.690;9.466;2023-05-10T15:27:14;16.30;99.90
18974;DHT22;9621;48.690;9.466;2023-05-10T15:29:41;16.30;99.90
18974;DHT22;9621;48.690;9.466;2023-05-10T15:32:10;16.40;99.90
18974;DHT22;9621;48.690;9.466;2023-05-10T15:34:37;16.30;99.90
18974;DHT22;9621;48.690;9.466;2023-05-10T15:37:03;16.40;99.90
18974;DHT22;9621;48.690;9.466;2023-05-10T15:39:30;16.40;99.90
18974;DHT22;9621;48.690;9.466;2023-05-10T15:41:58;16.30;99.90
18974;DHT22;9621;48.690;9.466;2023-05-10T15:44:25;16.20;99.90
18974;DHT22;9621;48.690;9.466;2023-05-10T15:46:52;16.10;99.90
18974;DHT22;9621;48.690;9.466;2023-05-10T15:49:23;16.00;99.90
18974;DHT22;9621;48.690;9.466;2023-05-10T15:51:50;15.90;99.90
18974;DHT22;9621;48.690;9.466;2023-05-10T15:54:19;15.90;99.90